createdAt,value
2018-04-30T00:00:30.850Z,50.94
2018-04-30T00:02:57.263Z,50.95
2018-04-30T00:05:23.446Z,50.97
2018-04-30T00:07:50.063Z,50.96
2018-04-30T00:10:16.213Z,50.96
2018-04-30T00:12:42.684Z,50.95
2018-04-30T00:15:08.861Z,50.94
2018-04-30T00:17:35.043Z,50.95
2018-04-30T00:20:01.206Z,50.97
2018-04-30T00:22:27.691Z,50.96
2018-04-30T00:24:53.837Z,50.98
2018-04-30T00:27:19.972Z,50.96
2018-04-30T00:29:46.149Z,50.93
2018-04-30T00:32:12.298Z,50.95
2018-04-30T00:34:38.504Z,50.94
2018-04-30T00:37:04.679Z,50.91
2018-04-30T00:39:30.821Z,50.97
2018-04-30T00:41:57.018Z,51.00
2018-04-30T00:44:23.153Z,50.99
2018-04-30T00:46:49.288Z,50.99
2018-04-30T00:49:15.582Z,50.97
2018-04-30T00:51:41.730Z,50.97
2018-04-30T00:54:07.884Z,50.96
2018-04-30T00:56:34.485Z,50.95
2018-04-30T00:59:00.633Z,50.94
2018-04-30T01:01:26.777Z,50.93
2018-04-30T01:03:52.953Z,50.92
2018-04-30T01:06:19.102Z,50.90
2018-04-30T01:08:45.265Z,50.87
2018-04-30T01:11:11.409Z,50.88
2018-04-30T01:13:37.917Z,50.87
2018-04-30T01:16:04.089Z,50.87
2018-04-30T01:18:30.228Z,50.90
2018-04-30T01:20:56.663Z,50.89
2018-04-30T01:23:23.098Z,50.87
2018-04-30T01:25:49.285Z,50.85
2018-04-30T01:28:15.760Z,50.85
2018-04-30T01:30:41.930Z,50.86
2018-04-30T01:33:08.077Z,50.85
2018-04-30T01:35:35.238Z,50.85
2018-04-30T01:38:01.378Z,50.85
2018-04-30T01:40:27.525Z,50.87
2018-04-30T01:42:53.693Z,50.91
2018-04-30T01:45:19.850Z,50.92
2018-04-30T01:47:46.053Z,50.90
2018-04-30T01:50:12.224Z,50.89
2018-04-30T01:52:38.651Z,50.88
2018-04-30T01:55:04.845Z,50.89
2018-04-30T01:57:30.984Z,50.88
2018-04-30T01:59:57.173Z,50.89
2018-04-30T02:02:23.406Z,50.90
2018-04-30T02:04:49.555Z,50.90
2018-04-30T02:07:15.738Z,50.91
2018-04-30T02:09:41.876Z,50.90
2018-04-30T02:12:08.045Z,50.91
2018-04-30T02:14:34.218Z,50.91
2018-04-30T02:17:00.737Z,50.92
2018-04-30T02:19:27.161Z,50.94
2018-04-30T02:21:53.333Z,50.93
2018-04-30T02:24:19.590Z,50.92
2018-04-30T02:26:45.737Z,50.92
2018-04-30T02:29:12.414Z,50.93
2018-04-30T02:31:38.562Z,50.94
2018-04-30T02:34:04.710Z,50.93
2018-04-30T02:36:31.003Z,50.94
2018-04-30T02:38:57.149Z,50.96
2018-04-30T02:41:23.294Z,50.97
2018-04-30T02:43:49.472Z,50.98
2018-04-30T02:46:15.614Z,50.96
2018-04-30T02:48:41.829Z,50.95
2018-04-30T02:51:08.050Z,50.93
2018-04-30T02:53:34.193Z,50.92
2018-04-30T02:56:00.373Z,50.89
2018-04-30T02:58:26.998Z,50.92
2018-04-30T03:00:53.147Z,50.92
2018-04-30T03:03:19.281Z,50.89
2018-04-30T03:05:45.474Z,50.87
2018-04-30T03:08:11.946Z,50.86
2018-04-30T03:10:38.371Z,50.86
2018-04-30T03:13:04.551Z,50.87
2018-04-30T03:15:30.702Z,50.88
2018-04-30T03:17:57.027Z,50.88
2018-04-30T03:20:23.483Z,50.89
2018-04-30T03:22:49.629Z,50.88
2018-04-30T03:25:15.857Z,50.86
2018-04-30T03:27:42.003Z,50.89
2018-04-30T03:30:08.144Z,50.89
2018-04-30T03:32:34.343Z,50.87
2018-04-30T03:35:00.483Z,50.86
2018-04-30T03:37:26.633Z,50.85
2018-04-30T03:39:52.818Z,50.87
2018-04-30T03:42:19.053Z,50.89
2018-04-30T03:44:45.645Z,50.89
2018-04-30T03:47:11.778Z,50.91
2018-04-30T03:49:37.978Z,50.92
2018-04-30T03:52:04.159Z,50.88
2018-04-30T03:54:30.581Z,50.86
2018-04-30T03:56:56.864Z,50.87
2018-04-30T03:59:23.009Z,50.87
2018-04-30T04:02:02.324Z,50.91
2018-04-30T04:04:40.682Z,50.89
2018-04-30T04:07:06.849Z,50.87
2018-04-30T04:09:32.994Z,50.89
2018-04-30T04:11:59.175Z,50.91
2018-04-30T04:14:25.693Z,50.90
2018-04-30T04:16:51.839Z,50.88
2018-04-30T04:19:17.977Z,50.86
2018-04-30T04:21:44.479Z,50.82
2018-04-30T04:24:10.672Z,50.80
2018-04-30T04:26:36.870Z,50.78
2018-04-30T04:29:03.010Z,50.75
2018-04-30T04:31:29.165Z,50.72
2018-04-30T04:33:55.353Z,50.71
2018-04-30T04:36:21.507Z,50.67
2018-04-30T04:38:48.111Z,50.63
2018-04-30T04:41:14.311Z,50.62
2018-04-30T04:43:40.737Z,50.62
2018-04-30T04:46:06.945Z,50.64
2018-04-30T04:48:33.401Z,50.64
2018-04-30T04:50:59.538Z,50.65
2018-04-30T04:53:25.751Z,50.64
2018-04-30T04:55:52.391Z,50.62
2018-04-30T04:58:18.542Z,50.60
2018-04-30T05:00:44.949Z,50.55
2018-04-30T05:03:11.386Z,50.49
2018-04-30T05:05:37.532Z,50.44
2018-04-30T05:08:03.748Z,50.40
2018-04-30T05:10:30.171Z,50.38
2018-04-30T05:12:56.361Z,50.38
2018-04-30T05:15:22.525Z,50.40
2018-04-30T05:17:48.994Z,50.41
2018-04-30T05:20:15.141Z,50.40
2018-04-30T05:22:41.290Z,50.40
2018-04-30T05:25:07.499Z,50.41
2018-04-30T05:27:33.641Z,50.38
2018-04-30T05:29:59.813Z,50.36
2018-04-30T05:32:26.220Z,50.36
2018-04-30T05:34:52.501Z,50.39
2018-04-30T05:37:18.700Z,50.42
2018-04-30T05:39:44.894Z,50.45
2018-04-30T05:42:11.194Z,50.47
2018-04-30T05:44:37.378Z,50.49
2018-04-30T05:47:03.561Z,50.50
2018-04-30T05:49:29.847Z,50.51
2018-04-30T05:51:55.985Z,50.48
2018-04-30T05:54:22.128Z,50.47
2018-04-30T05:56:48.280Z,50.44
2018-04-30T05:59:14.458Z,50.41
2018-04-30T06:01:40.610Z,50.37
2018-04-30T06:04:07.122Z,50.30
2018-04-30T06:06:33.269Z,50.24
2018-04-30T06:08:59.404Z,50.21
2018-04-30T06:11:25.690Z,50.16
2018-04-30T06:13:51.842Z,50.08
2018-04-30T06:16:17.980Z,49.98
2018-04-30T06:18:44.253Z,49.89
2018-04-30T06:21:10.388Z,49.78
2018-04-30T06:23:36.549Z,49.64
2018-04-30T06:26:02.764Z,49.53
2018-04-30T06:28:28.926Z,49.39
2018-04-30T06:30:55.110Z,49.18
2018-04-30T06:33:21.276Z,49.08
2018-04-30T06:35:48.194Z,49.14
2018-04-30T06:38:14.325Z,49.24
2018-04-30T06:40:40.486Z,49.38
2018-04-30T06:43:06.658Z,49.50
2018-04-30T06:45:32.932Z,49.61
2018-04-30T06:47:59.078Z,49.70
2018-04-30T06:50:25.217Z,49.73
2018-04-30T06:52:51.439Z,49.76
2018-04-30T06:55:17.588Z,49.75
2018-04-30T06:57:43.749Z,49.67
2018-04-30T07:00:10.228Z,49.55
2018-04-30T07:02:36.374Z,49.43
2018-04-30T07:05:02.746Z,49.40
2018-04-30T07:07:29.127Z,49.38
2018-04-30T07:09:55.272Z,49.36
2018-04-30T07:12:21.558Z,49.35
2018-04-30T07:14:47.709Z,49.29
2018-04-30T07:17:13.852Z,49.19
2018-04-30T07:19:40.365Z,49.09
2018-04-30T07:22:06.639Z,49.00
2018-04-30T07:24:32.793Z,48.92
2018-04-30T07:26:58.961Z,48.83
2018-04-30T07:29:25.233Z,48.74
2018-04-30T07:31:51.386Z,48.60
2018-04-30T07:34:17.530Z,48.44
2018-04-30T07:36:43.805Z,48.38
2018-04-30T07:39:10.007Z,48.32
2018-04-30T07:41:36.417Z,48.30
2018-04-30T07:44:02.586Z,48.28
2018-04-30T07:46:28.733Z,48.25
2018-04-30T07:48:54.919Z,48.22
2018-04-30T07:51:21.065Z,48.28
2018-04-30T07:53:47.560Z,48.35
2018-04-30T07:56:13.723Z,48.29
2018-04-30T07:58:39.878Z,48.24
2018-04-30T08:01:06.165Z,48.16
2018-04-30T08:03:32.308Z,48.07
2018-04-30T08:05:58.456Z,48.02
2018-04-30T08:08:24.644Z,47.95
2018-04-30T08:10:50.812Z,47.92
2018-04-30T08:13:17.019Z,47.92
2018-04-30T08:15:43.164Z,47.90
2018-04-30T08:18:09.307Z,47.85
2018-04-30T08:20:35.495Z,47.79
2018-04-30T08:23:01.890Z,47.75
2018-04-30T08:25:28.189Z,47.69
2018-04-30T08:27:54.439Z,47.61
2018-04-30T08:30:20.591Z,47.55
2018-04-30T08:32:46.776Z,47.52
2018-04-30T08:35:12.924Z,47.51
2018-04-30T08:37:39.076Z,47.57
2018-04-30T08:40:05.257Z,47.63
2018-04-30T08:42:31.405Z,47.74
2018-04-30T08:44:57.705Z,47.85
2018-04-30T08:47:23.809Z,47.98
2018-04-30T08:49:49.952Z,48.07
2018-04-30T08:52:16.229Z,48.12
2018-04-30T08:54:42.375Z,48.16
2018-04-30T08:57:08.530Z,48.20
2018-04-30T08:59:34.821Z,48.25
2018-04-30T09:02:00.965Z,48.31
2018-04-30T09:04:27.117Z,48.36
2018-04-30T09:06:53.301Z,48.40
2018-04-30T09:09:19.713Z,48.39
2018-04-30T09:11:46.317Z,48.40
2018-04-30T09:14:12.466Z,48.38
2018-04-30T09:16:38.634Z,48.37
2018-04-30T09:19:04.815Z,48.35
2018-04-30T09:21:31.262Z,48.30
2018-04-30T09:23:57.454Z,48.27
2018-04-30T09:26:23.655Z,48.27
2018-04-30T09:28:49.814Z,48.24
2018-04-30T09:31:15.964Z,48.19
2018-04-30T09:33:42.141Z,48.17
2018-04-30T09:36:08.629Z,48.13
2018-04-30T09:38:34.818Z,48.07
2018-04-30T09:41:01.001Z,47.94
2018-04-30T09:43:27.235Z,47.79
2018-04-30T09:45:53.469Z,47.75
2018-04-30T09:48:19.620Z,47.74
2018-04-30T09:50:45.776Z,47.73
2018-04-30T09:53:12.469Z,47.69
2018-04-30T09:55:38.632Z,47.73
2018-04-30T09:58:04.797Z,47.75
2018-04-30T10:00:31.321Z,47.81
2018-04-30T10:02:57.623Z,47.85
2018-04-30T10:05:23.777Z,47.93
2018-04-30T10:07:49.939Z,48.05
2018-04-30T10:10:16.126Z,48.18
2018-04-30T10:12:42.300Z,48.27
2018-04-30T10:15:08.898Z,48.37
2018-04-30T10:17:35.090Z,48.44
2018-04-30T10:20:01.229Z,48.50
2018-04-30T10:22:27.409Z,48.57
2018-04-30T10:24:53.565Z,48.64
2018-04-30T10:27:19.873Z,48.69
2018-04-30T10:29:46.044Z,48.74
2018-04-30T10:32:12.204Z,48.80
2018-04-30T10:34:38.727Z,48.89
2018-04-30T10:37:04.881Z,48.94
2018-04-30T10:39:38.000Z,49.12
2018-04-30T10:42:04.145Z,49.13
2018-04-30T10:44:30.292Z,49.07
2018-04-30T10:46:56.826Z,49.05
2018-04-30T10:49:22.972Z,49.08
2018-04-30T10:51:49.166Z,49.11
2018-04-30T10:54:15.372Z,49.19
2018-04-30T10:56:41.511Z,49.32
2018-04-30T10:59:07.711Z,49.40
2018-04-30T11:01:34.196Z,49.34
2018-04-30T11:04:00.340Z,49.36
2018-04-30T11:06:26.859Z,49.39
2018-04-30T11:08:53.284Z,49.40
2018-04-30T11:11:26.517Z,49.48
2018-04-30T11:13:52.669Z,49.50
2018-04-30T11:16:18.957Z,49.41
2018-04-30T11:18:45.368Z,49.35
2018-04-30T11:21:11.523Z,49.35
2018-04-30T11:23:37.699Z,49.40
2018-04-30T11:26:03.876Z,49.42
2018-04-30T11:28:30.394Z,49.39
2018-04-30T11:30:56.563Z,49.39
2018-04-30T11:33:22.709Z,49.53
2018-04-30T11:35:49.221Z,49.57
2018-04-30T11:38:15.393Z,49.60
2018-04-30T11:40:41.553Z,49.58
2018-04-30T11:43:07.763Z,49.58
2018-04-30T11:45:34.086Z,49.66
2018-04-30T11:48:00.241Z,49.66
2018-04-30T11:50:26.408Z,49.66
2018-04-30T11:52:52.593Z,49.41
2018-04-30T11:55:18.757Z,49.08
2018-04-30T11:57:44.989Z,48.97
2018-04-30T12:00:11.694Z,49.07
2018-04-30T12:02:37.853Z,49.23
2018-04-30T12:05:04.101Z,49.43
2018-04-30T12:07:30.590Z,49.61
2018-04-30T12:09:56.752Z,49.74
2018-04-30T12:12:22.920Z,49.86
2018-04-30T12:14:49.229Z,49.93
2018-04-30T12:17:15.665Z,49.96
2018-04-30T12:19:41.911Z,49.97
2018-04-30T12:22:08.100Z,50.02
2018-04-30T12:24:34.553Z,50.09
2018-04-30T12:27:00.826Z,50.14
2018-04-30T12:29:27.470Z,50.19
2018-04-30T12:31:53.659Z,50.22
2018-04-30T12:34:19.831Z,50.24
2018-04-30T12:36:46.051Z,50.24
2018-04-30T12:39:12.228Z,50.29
2018-04-30T12:41:38.409Z,50.28
2018-04-30T12:44:04.710Z,50.27
2018-04-30T12:46:30.866Z,50.22
2018-04-30T12:48:57.034Z,50.18
2018-04-30T12:51:23.254Z,50.09
2018-04-30T12:53:49.427Z,49.99
2018-04-30T12:56:15.596Z,49.94
2018-04-30T12:58:41.793Z,49.89
2018-04-30T13:01:07.958Z,49.88
2018-04-30T13:03:34.514Z,49.83
2018-04-30T13:06:00.672Z,49.78
2018-04-30T13:08:26.825Z,49.66
2018-04-30T13:10:53.405Z,49.54
2018-04-30T13:13:19.577Z,49.49
2018-04-30T13:15:46.062Z,49.57
2018-04-30T13:18:12.378Z,49.65
2018-04-30T13:20:38.541Z,49.66
2018-04-30T13:23:04.689Z,49.83
2018-04-30T13:25:30.865Z,49.97
2018-04-30T13:27:57.245Z,50.05
2018-04-30T13:30:23.752Z,50.15
2018-04-30T13:32:49.892Z,50.18
2018-04-30T13:35:16.292Z,50.22
2018-04-30T13:37:42.467Z,50.23
2018-04-30T13:40:08.624Z,50.17
2018-04-30T13:42:35.080Z,50.09
2018-04-30T13:45:01.230Z,49.85
2018-04-30T13:47:27.444Z,49.48
2018-04-30T13:49:53.595Z,49.34
2018-04-30T13:52:19.779Z,49.44
2018-04-30T13:54:46.068Z,49.53
2018-04-30T13:57:12.213Z,49.56
2018-04-30T13:59:38.354Z,49.55
2018-04-30T14:02:04.642Z,49.48
2018-04-30T14:04:30.796Z,49.38
2018-04-30T14:06:56.939Z,49.21
2018-04-30T14:09:23.420Z,49.10
2018-04-30T14:11:49.578Z,49.10
2018-04-30T14:14:15.748Z,49.21
2018-04-30T14:16:41.912Z,49.43
2018-04-30T14:19:08.092Z,49.65
2018-04-30T14:21:34.312Z,49.84
2018-04-30T14:24:00.453Z,49.97
2018-04-30T14:26:26.625Z,50.09
2018-04-30T14:28:52.801Z,50.19
2018-04-30T14:31:18.996Z,50.25
2018-04-30T14:33:45.465Z,50.32
2018-04-30T14:36:11.627Z,50.37
2018-04-30T14:38:38.159Z,50.40
2018-04-30T14:41:04.313Z,50.44
2018-04-30T14:43:30.460Z,50.39
2018-04-30T14:45:56.641Z,49.96
2018-04-30T14:48:22.798Z,49.05
2018-04-30T14:50:49.267Z,47.67
2018-04-30T14:53:15.407Z,42.33
2018-04-30T14:55:41.602Z,38.18
2018-04-30T14:58:08.064Z,36.22
2018-04-30T15:00:34.205Z,35.80
2018-04-30T15:03:00.393Z,36.40
2018-04-30T15:05:26.534Z,38.00
2018-04-30T15:07:52.683Z,36.94
2018-04-30T15:10:18.864Z,35.93
2018-04-30T15:12:44.994Z,35.15
2018-04-30T15:15:11.128Z,36.27
2018-04-30T15:17:37.325Z,35.27
2018-04-30T15:20:03.498Z,35.51
2018-04-30T15:22:29.639Z,35.47
2018-04-30T15:24:55.846Z,38.22
2018-04-30T15:27:22.278Z,40.83
2018-04-30T15:29:48.421Z,42.94
2018-04-30T15:32:15.046Z,44.49
2018-04-30T15:34:41.212Z,45.37
2018-04-30T15:37:07.346Z,44.64
2018-04-30T15:39:33.510Z,43.86
2018-04-30T15:41:59.743Z,43.60
2018-04-30T15:44:25.921Z,43.11
2018-04-30T15:46:52.098Z,42.95
2018-04-30T15:49:18.301Z,42.73
2018-04-30T15:51:44.534Z,42.98
2018-04-30T15:54:10.703Z,43.27
2018-04-30T15:56:36.978Z,43.04
2018-04-30T15:59:03.449Z,43.34
2018-04-30T16:01:29.693Z,43.59
2018-04-30T16:03:55.833Z,43.58
2018-04-30T16:06:21.979Z,43.15
2018-04-30T16:08:48.465Z,43.60
2018-04-30T16:11:14.742Z,44.76
2018-04-30T16:13:40.921Z,45.55
2018-04-30T16:16:07.066Z,46.14
2018-04-30T16:18:33.272Z,46.27
2018-04-30T16:20:59.430Z,46.17
2018-04-30T16:23:25.598Z,46.36
2018-04-30T16:25:51.775Z,46.46
2018-04-30T16:28:17.911Z,46.18
2018-04-30T16:30:44.081Z,46.13
2018-04-30T16:33:10.541Z,45.33
2018-04-30T16:35:36.723Z,45.23
2018-04-30T16:38:02.861Z,44.57
2018-04-30T16:40:29.022Z,44.94
2018-04-30T16:42:55.168Z,45.06
2018-04-30T16:45:21.346Z,45.22
2018-04-30T16:47:47.476Z,45.29
2018-04-30T16:50:14.085Z,45.51
2018-04-30T16:52:40.254Z,45.93
2018-04-30T16:55:06.552Z,46.44
2018-04-30T16:57:32.730Z,46.72
2018-04-30T16:59:59.025Z,46.90
2018-04-30T17:02:25.185Z,46.90
2018-04-30T17:04:51.336Z,46.74
2018-04-30T17:07:17.515Z,46.27
2018-04-30T17:09:43.657Z,45.86
2018-04-30T17:12:09.842Z,45.58
2018-04-30T17:14:36.062Z,45.38
2018-04-30T17:17:02.209Z,45.00
2018-04-30T17:19:28.353Z,45.00
2018-04-30T17:21:54.530Z,45.51
2018-04-30T17:24:20.937Z,46.19
2018-04-30T17:26:47.104Z,46.69
2018-04-30T17:29:13.268Z,47.02
2018-04-30T17:31:39.590Z,47.28
2018-04-30T17:34:05.949Z,47.42
2018-04-30T17:36:32.208Z,47.41
2018-04-30T17:38:58.314Z,47.37
2018-04-30T17:41:24.828Z,47.33
2018-04-30T17:43:51.316Z,47.38
2018-04-30T17:46:17.521Z,47.18
2018-04-30T17:48:43.660Z,46.62
2018-04-30T17:51:09.830Z,46.07
2018-04-30T17:53:36.532Z,45.73
2018-04-30T17:56:02.704Z,46.02
2018-04-30T17:58:28.861Z,45.98
2018-04-30T18:00:55.032Z,45.79
2018-04-30T18:03:21.177Z,45.77
2018-04-30T18:05:47.384Z,45.79
2018-04-30T18:08:13.557Z,45.76
2018-04-30T18:10:39.706Z,45.81
2018-04-30T18:13:05.896Z,45.80
2018-04-30T18:15:32.272Z,45.80
2018-04-30T18:17:58.480Z,45.89
2018-04-30T18:20:24.625Z,46.00
2018-04-30T18:22:50.777Z,46.17
2018-04-30T18:25:16.954Z,46.42
2018-04-30T18:27:43.089Z,46.68
2018-04-30T18:30:09.259Z,46.91
2018-04-30T18:32:35.487Z,47.11
2018-04-30T18:35:01.642Z,47.28
2018-04-30T18:37:27.792Z,47.42
2018-04-30T18:39:53.983Z,47.57
2018-04-30T18:42:20.134Z,47.67
2018-04-30T18:44:46.362Z,47.77
2018-04-30T18:47:12.530Z,47.93
2018-04-30T18:49:38.684Z,47.97
2018-04-30T18:52:04.889Z,48.08
2018-04-30T18:54:31.065Z,48.12
2018-04-30T18:56:57.213Z,48.17
2018-04-30T18:59:23.389Z,48.26
2018-04-30T19:01:49.553Z,48.30
2018-04-30T19:04:16.209Z,48.35
2018-04-30T19:06:42.369Z,48.38
2018-04-30T19:09:08.524Z,48.42
2018-04-30T19:11:34.718Z,48.44
2018-04-30T19:14:01.194Z,48.48
2018-04-30T19:16:27.349Z,48.49
2018-04-30T19:18:53.507Z,48.53
2018-04-30T19:21:19.750Z,48.53
2018-04-30T19:23:45.903Z,48.50
2018-04-30T19:26:12.066Z,48.52
2018-04-30T19:28:38.257Z,48.60
2018-04-30T19:31:04.447Z,48.70
2018-04-30T19:33:30.629Z,48.78
2018-04-30T19:35:56.828Z,48.88
2018-04-30T19:38:22.987Z,48.97
2018-04-30T19:40:49.137Z,49.04
2018-04-30T19:43:15.321Z,49.13
2018-04-30T19:45:41.473Z,49.18
2018-04-30T19:48:07.645Z,49.28
2018-04-30T19:50:34.101Z,49.37
2018-04-30T19:53:00.322Z,49.44
2018-04-30T19:55:26.596Z,49.48
2018-04-30T19:57:53.098Z,49.55
2018-04-30T20:00:19.268Z,49.64
2018-04-30T20:02:45.449Z,49.69
2018-04-30T20:05:11.646Z,49.75
2018-04-30T20:07:37.823Z,49.77
2018-04-30T20:10:03.994Z,49.83
2018-04-30T20:12:30.150Z,49.90
2018-04-30T20:14:56.328Z,49.95
2018-04-30T20:17:22.509Z,49.97
2018-04-30T20:19:48.657Z,50.03
2018-04-30T20:22:14.834Z,50.08
2018-04-30T20:24:40.976Z,50.09
2018-04-30T20:27:07.421Z,50.18
2018-04-30T20:29:33.574Z,50.20
2018-04-30T20:31:59.761Z,50.22
2018-04-30T20:34:25.931Z,50.25
2018-04-30T20:36:52.126Z,50.30
2018-04-30T20:39:18.301Z,50.32
2018-04-30T20:41:44.506Z,50.35
2018-04-30T20:44:10.920Z,50.37
2018-04-30T20:46:37.095Z,50.41
2018-04-30T20:49:03.277Z,50.44
2018-04-30T20:51:29.425Z,50.46
2018-04-30T20:53:55.606Z,50.47
2018-04-30T20:56:21.763Z,50.52
2018-04-30T20:58:48.592Z,50.53
2018-04-30T21:01:14.748Z,50.56
2018-04-30T21:03:40.897Z,50.57
2018-04-30T21:06:07.113Z,50.60
2018-04-30T21:08:45.489Z,50.64
2018-04-30T21:11:11.661Z,50.66
2018-04-30T21:13:37.841Z,50.70
2018-04-30T21:16:04.060Z,50.71
2018-04-30T21:18:30.212Z,50.74
2018-04-30T21:20:56.381Z,50.77
2018-04-30T21:23:22.532Z,50.80
2018-04-30T21:25:48.702Z,50.82
2018-04-30T21:28:14.874Z,50.86
2018-04-30T21:30:41.040Z,50.88
2018-04-30T21:33:07.274Z,50.87
2018-04-30T21:35:33.688Z,50.89
2018-04-30T21:37:59.834Z,50.94
2018-04-30T21:40:26.010Z,50.97
2018-04-30T21:42:52.479Z,51.01
2018-04-30T21:45:18.654Z,51.03
2018-04-30T21:47:44.809Z,51.06
2018-04-30T21:50:11.080Z,51.08
2018-04-30T21:52:37.217Z,51.12
2018-04-30T21:55:03.617Z,51.14
2018-04-30T21:57:29.833Z,51.14
2018-04-30T21:59:55.976Z,51.14
2018-04-30T22:02:22.409Z,51.16
2018-04-30T22:04:48.842Z,51.16
2018-04-30T22:07:14.986Z,51.18
2018-04-30T22:09:41.130Z,51.19
2018-04-30T22:12:07.342Z,51.25
2018-04-30T22:14:33.749Z,51.28
2018-04-30T22:17:00.189Z,51.27
2018-04-30T22:19:26.617Z,51.30
2018-04-30T22:21:52.769Z,51.30
2018-04-30T22:24:18.952Z,51.30
2018-04-30T22:26:45.089Z,51.33
2018-04-30T22:29:11.653Z,51.36
2018-04-30T22:31:38.066Z,51.41
2018-04-30T22:34:04.238Z,51.42
2018-04-30T22:36:30.724Z,51.43
2018-04-30T22:38:57.162Z,51.46
2018-04-30T22:41:23.594Z,51.49
2018-04-30T22:43:49.757Z,51.50
2018-04-30T22:46:15.929Z,51.50
2018-04-30T22:48:42.382Z,51.49
2018-04-30T22:51:08.530Z,51.46
2018-04-30T22:53:34.738Z,51.44
2018-04-30T22:56:00.884Z,51.47
2018-04-30T22:58:27.288Z,51.47
2018-04-30T23:00:53.484Z,51.51
2018-04-30T23:03:19.634Z,51.51
2018-04-30T23:05:45.768Z,51.52
2018-04-30T23:08:12.308Z,51.52
2018-04-30T23:10:38.456Z,51.50
2018-04-30T23:13:04.598Z,51.51
2018-04-30T23:15:30.769Z,51.55
2018-04-30T23:17:56.907Z,51.52
2018-04-30T23:20:23.407Z,51.52
2018-04-30T23:22:49.552Z,51.58
2018-04-30T23:25:15.693Z,51.57
2018-04-30T23:27:41.996Z,51.60
2018-04-30T23:30:08.140Z,51.58
2018-04-30T23:32:34.285Z,51.61
2018-04-30T23:35:00.466Z,51.60
2018-04-30T23:37:26.593Z,51.57
2018-04-30T23:39:53.217Z,51.58
2018-04-30T23:42:19.610Z,51.58
2018-04-30T23:44:45.997Z,51.59
2018-04-30T23:47:12.176Z,51.59
2018-04-30T23:49:38.330Z,51.60
2018-04-30T23:52:04.501Z,51.59
2018-04-30T23:54:30.648Z,51.56
2018-04-30T23:56:56.812Z,51.55
2018-04-30T23:59:22.984Z,51.53
